Mir — UFPV — position and weather

sailwx.info

Track history (hours):
 
Tides and Currents Weather Stations Pressure Air Temp Water Temp Dewpoint Dewpoint Depression Visibility Wind Speed Wind Dir Waves Ship Positions

Mir (Russia)

Last reported at 2018-Apr-23 00:00 UTC. Time now 2018-Apr-23 00:19 UTC.
Position N 54°58' E 016°16'.

Length 109 m; draft 6.6 m.

Type: Sailing vessel. MMSI: 273133800.

Date/timePositionNaut miles runAvg speedWind from/ knotsBaromVisibWave heightAir tempDewpointWater temp
2018-Apr-23 00:00N 54°58' E 016°16'0 0.7
2018-Apr-22 23:26N 54°58' E 016°16'0 0.6
2018-Apr-22 23:00N 54°58' E 016°17'0 0.6
2018-Apr-22 22:28N 54°58' E 016°17'0 0.5
2018-Apr-22 22:00N 54°58' E 016°18'0 0.5
2018-Apr-22 21:23N 54°58' E 016°18'0 0.4
2018-Apr-22 20:53N 54°58' E 016°19'0 0.4
2018-Apr-22 20:19N 54°58' E 016°19'0 0.5
2018-Apr-22 20:00N 54°58' E 016°19'0 0.4
2018-Apr-22 19:26N 54°58' E 016°20'0 0.4
2018-Apr-22 18:58N 54°58' E 016°20'0 0.5
2018-Apr-22 18:30N 54°58' E 016°21'0 0.4
2018-Apr-22 18:00N 54°58' E 016°21'0 0.3
2018-Apr-22 17:24N 54°58' E 016°21'0 0.3
2018-Apr-22 16:59N 54°58' E 016°21'0 0.3
2018-Apr-22 16:30N 54°58' E 016°22'0 0.3
2018-Apr-22 16:00N 54°58' E 016°22'0 0.3
2018-Apr-22 15:30N 54°58' E 016°22'1 0.1
2018-Apr-22 11:07N 54°57' E 016°23'0 0.2
2018-Apr-22 09:58N 54°57' E 016°22'26 4.0
2018-Apr-22 03:25N 55°12' E 016°60'47 5.6
2018-Apr-21 18:54N 55°43' E 018°02'2 5.4
2018-Apr-21 18:30N 55°45' E 018°05'3 5.4
2018-Apr-21 17:58N 55°47' E 018°08'4 5.9
2018-Apr-21 17:16N 55°51' E 018°11'2 5.8
2018-Apr-21 16:59N 55°53' E 018°12'218 5.3
2018-Apr-20 00:00N 59°04' E 021°29'58 5.1
2018-Apr-19 12:39N 59°36' E 023°03'1 4.8
2018-Apr-19 12:21N 59°37' E 023°06'2 4.9
2018-Apr-19 12:00N 59°37' E 023°09'3 5.1
2018-Apr-19 11:30N 59°38' E 023°14'3 4.9
2018-Apr-19 10:57N 59°38' E 023°19'2 4.9
2018-Apr-19 10:30N 59°39' E 023°23'3 5.3
2018-Apr-19 10:00N 59°40' E 023°28'3 5.3
2018-Apr-19 09:30N 59°40' E 023°33'3 5.5
2018-Apr-19 08:59N 59°41' E 023°39'3 5.4
2018-Apr-19 08:30N 59°42' E 023°44'3 5.5
2018-Apr-19 07:57N 59°43' E 023°49'2 5.2
2018-Apr-19 07:28N 59°43' E 023°54'2 5.3
2018-Apr-19 07:00N 59°44' E 023°59'3 5.1
2018-Apr-19 06:30N 59°44' E 024°04'7 5.4
2018-Apr-19 05:08N 59°46' E 024°18'1 5.5
2018-Apr-19 05:00N 59°47' E 024°19'3 5.4
2018-Apr-19 04:30N 59°47' E 024°25'3 5.1
2018-Apr-19 04:00N 59°48' E 024°30'2 5.0
2018-Apr-19 03:30N 59°48' E 024°34'2 5.0
2018-Apr-19 03:00N 59°49' E 024°39'3 5.2
2018-Apr-19 02:30N 59°49' E 024°44'3 5.1
2018-Apr-19 02:00N 59°50' E 024°49'3 5.1
2018-Apr-19 01:30N 59°51' E 024°54'3 5.2
2018-Apr-19 00:54N 59°51' E 025°00'2 5.5
2018-Apr-19 00:29N 59°52' E 025°05'3 5.4
2018-Apr-19 00:00N 59°52' E 025°10'3 5.4
2018-Apr-18 23:30N 59°53' E 025°15'29 5.3
2018-Apr-18 17:58N 59°59' E 026°12'3 5.6
2018-Apr-18 17:30N 59°60' E 026°17'3 5.4
2018-Apr-18 16:58N 60°00' E 026°23'3 5.6
2018-Apr-18 16:30N 60°01' E 026°28'3 5.5
2018-Apr-18 16:00N 60°02' E 026°33'3 5.5
2018-Apr-18 15:30N 60°02' E 026°39'3 5.6
2018-Apr-18 15:00N 60°01' E 026°44'3 5.3
2018-Apr-18 14:30N 60°01' E 026°49'3 5.5
2018-Apr-18 13:58N 60°00' E 026°55'2 5.4
2018-Apr-18 13:30N 59°60' E 027°00'3 5.4
2018-Apr-18 13:00N 60°00' E 027°05'3 5.7
2018-Apr-18 12:30N 60°02' E 027°10'3 5.6
2018-Apr-18 12:00N 60°03' E 027°15'3 5.5
2018-Apr-18 11:30N 60°05' E 027°20'3 5.7
2018-Apr-18 11:00N 60°06' E 027°25'3 5.7
2018-Apr-18 10:30N 60°08' E 027°30'3 6.4
2018-Apr-18 10:00N 60°09' E 027°35'3 5.1
2018-Apr-18 09:30N 60°11' E 027°39'3 6.1
2018-Apr-18 09:00N 60°12' E 027°45'3 6.3
2018-Apr-18 08:30N 60°11' E 027°51'3 6.4
2018-Apr-18 08:00N 60°11' E 027°58'3 6.4
2018-Apr-18 07:30N 60°10' E 028°04'3 6.5
2018-Apr-18 07:00N 60°09' E 028°10'3 6.5
2018-Apr-18 06:30N 60°08' E 028°16'3 6.6
2018-Apr-18 06:00N 60°06' E 028°22'3 6.7
2018-Apr-18 05:30N 60°04' E 028°27'3 6.3
2018-Apr-18 05:00N 60°03' E 028°33'3 6.3
2018-Apr-18 04:30N 60°03' E 028°40'3 6.5
2018-Apr-18 04:01N 60°03' E 028°46'27 6.4
2018-Apr-17 23:52N 59°60' E 029°39'3 7.3
2018-Apr-17 23:30N 59°59' E 029°44'4 7.2
2018-Apr-17 23:00N 59°57' E 029°50'4 7.4
2018-Apr-17 22:30N 59°56' E 029°57'4 7.6
2018-Apr-17 22:01N 59°54' E 030°04'4 7.9
2018-Apr-17 21:29N 59°53' E 030°12'0 0.8
2018-Apr-17 21:00N 59°53' E 030°13'0 0.0
2018-Apr-17 20:27N 59°53' E 030°13'0 0.0
2018-Apr-17 20:00N 59°53' E 030°13'0 0.0
2018-Apr-17 19:30N 59°53' E 030°13'0 0.0
2018-Apr-17 19:00N 59°53' E 030°13'0 0.0
2018-Apr-17 18:30N 59°53' E 030°13'0 0.0
2018-Apr-17 18:00N 59°53' E 030°13'0 0.0
2018-Apr-17 17:30N 59°53' E 030°13'0 0.0
2018-Apr-17 17:00N 59°53' E 030°13'0 0.0
2018-Apr-17 16:27N 59°53' E 030°13'0 0.0
2018-Apr-17 16:00N 59°53' E 030°13'0 0.0
2018-Apr-17 15:30N 59°53' E 030°13'0 0.0
2018-Apr-17 15:00N 59°53' E 030°13'0 0.0
2018-Apr-17 14:30N 59°53' E 030°13'0 0.0
2018-Apr-17 13:57N 59°53' E 030°13'0 0.0
2018-Apr-17 13:30N 59°53' E 030°13'0 0.0
2018-Apr-17 13:00N 59°53' E 030°13'0 0.0
2018-Apr-17 12:30N 59°53' E 030°13'0 0.0
2018-Apr-17 12:00N 59°53' E 030°13'0 0.0
2018-Apr-17 11:30N 59°53' E 030°13'0 0.0
2018-Apr-17 11:00N 59°53' E 030°13'0 0.0
2018-Apr-17 10:30N 59°53' E 030°13'0 0.0
2018-Apr-17 10:00N 59°53' E 030°13'0 0.0
2018-Apr-17 09:30N 59°53' E 030°13'0 0.0
2018-Apr-17 09:00N 59°53' E 030°13'0 0.0
2018-Apr-17 08:30N 59°53' E 030°13'0 0.0
2018-Apr-17 08:00N 59°53' E 030°13'0 0.0
2018-Apr-17 07:30N 59°53' E 030°13'0 0.0
2018-Apr-17 00:33N 59°53' E 030°13'0 0.1
2018-Apr-17 00:30N 59°53' E 030°13'0 0.0
2018-Apr-16 23:57N 59°53' E 030°13'0 0.0
2018-Apr-16 23:30N 59°53' E 030°13'0 0.0
2018-Apr-16 23:00N 59°53' E 030°13'0 0.0
2018-Apr-16 22:30N 59°53' E 030°13'0 0.0
2018-Apr-16 22:00N 59°53' E 030°13'0 0.0
2018-Apr-16 21:30N 59°53' E 030°13'0 0.0
2018-Apr-16 21:00N 59°53' E 030°13'0 0.0
2018-Apr-16 20:30N 59°53' E 030°13'0 0.0
2018-Apr-16 20:00N 59°53' E 030°13'0 0.0
2018-Apr-16 19:30N 59°53' E 030°13'0 0.0
2018-Apr-16 19:00N 59°53' E 030°13'0 0.0
2018-Apr-16 18:30N 59°53' E 030°13'0 0.0
2018-Apr-16 18:00N 59°53' E 030°13'0 0.0
2018-Apr-16 17:30N 59°53' E 030°13'0 0.0
2018-Apr-16 17:00N 59°53' E 030°13'0 0.0
2018-Apr-16 16:30N 59°53' E 030°13'0 0.0
2018-Apr-16 16:00N 59°53' E 030°13'0 0.0
2018-Apr-16 15:30N 59°53' E 030°13'0 0.0
2018-Apr-16 15:00N 59°53' E 030°13'0 0.0
2018-Apr-16 14:30N 59°53' E 030°13'0 0.0
2018-Apr-16 13:57N 59°53' E 030°13'0 0.0
2018-Apr-16 13:27N 59°53' E 030°13'0 0.0
2018-Apr-16 12:57N 59°53' E 030°13'0 0.0
2018-Apr-16 12:30N 59°53' E 030°13'0 0.0
2018-Apr-16 11:57N 59°53' E 030°13'0 0.0
2018-Apr-16 11:30N 59°53' E 030°13'0 0.0
2018-Apr-16 11:00N 59°53' E 030°13'0 0.0
2018-Apr-16 10:30N 59°53' E 030°13'0 0.0
2018-Apr-16 10:00N 59°53' E 030°13'0 0.0
2018-Apr-16 09:30N 59°53' E 030°13'0 0.0
2018-Apr-16 09:00N 59°53' E 030°13'0 0.0
2018-Apr-16 08:27N 59°53' E 030°13'0 0.0
2018-Apr-16 08:00N 59°53' E 030°13'0 0.0
2018-Apr-16 07:30N 59°53' E 030°13'0 0.0
2018-Apr-16 07:00N 59°53' E 030°13'0 0.0
2018-Apr-16 06:30N 59°53' E 030°13'0 0.0
2018-Apr-16 06:00N 59°53' E 030°13'0 0.0
2018-Apr-16 05:30N 59°53' E 030°13'0 0.0
2018-Apr-16 05:00N 59°53' E 030°13'0 0.0
2018-Apr-16 04:24N 59°53' E 030°13'0 0.0
2018-Apr-16 04:00N 59°53' E 030°13'0 0.0
2018-Apr-16 03:27N 59°53' E 030°13'0 0.0
2018-Apr-16 03:00N 59°53' E 030°13'0 0.0
2018-Apr-16 02:30N 59°53' E 030°13'0 0.0
2018-Apr-16 01:57N 59°53' E 030°13'0 0.0
2018-Apr-16 01:30N 59°53' E 030°13'0 0.0
2018-Apr-16 01:00N 59°53' E 030°13'0 0.0
2018-Apr-16 00:30N 59°53' E 030°13'0 0.0
2018-Apr-15 23:57N 59°53' E 030°13'0 0.0
2018-Apr-15 23:30N 59°53' E 030°13'0 0.0
2018-Apr-15 23:00N 59°53' E 030°13'0 0.0
2018-Apr-15 22:30N 59°53' E 030°13'0 0.0
2018-Apr-15 22:00N 59°53' E 030°13'0 0.0
2018-Apr-15 21:21N 59°53' E 030°13'0 0.0
2018-Apr-15 21:00N 59°53' E 030°13'0 0.0
2018-Apr-15 20:30N 59°53' E 030°13'0 0.0
2018-Apr-15 19:57N 59°53' E 030°13'0 0.0
2018-Apr-15 19:30N 59°53' E 030°13'0 0.0
2018-Apr-15 19:00N 59°53' E 030°13'0 0.0
2018-Apr-15 18:27N 59°53' E 030°13'0 0.0
2018-Apr-15 17:57N 59°53' E 030°13'0 0.0
2018-Apr-15 17:30N 59°53' E 030°13'0 0.0
2018-Apr-15 17:00N 59°53' E 030°13'0 0.0
2018-Apr-15 16:30N 59°53' E 030°13'0 0.0
2018-Apr-15 16:00N 59°53' E 030°13'0 0.0
2018-Apr-15 15:30N 59°53' E 030°13'0 0.0
2018-Apr-15 14:57N 59°53' E 030°13'0 0.0
2018-Apr-15 14:27N 59°53' E 030°13'0 0.0
2018-Apr-15 14:00N 59°53' E 030°13'0 0.0
2018-Apr-15 13:27N 59°53' E 030°13'0 0.0
2018-Apr-15 13:00N 59°53' E 030°13'0 0.0
2018-Apr-15 12:30N 59°53' E 030°13'0 0.0
2018-Apr-15 12:00N 59°53' E 030°13'0 0.0
2018-Apr-15 11:30N 59°53' E 030°13'0 0.0
2018-Apr-15 11:00N 59°53' E 030°13'0 0.0
2018-Apr-15 10:30N 59°53' E 030°13'0 0.0
2018-Apr-15 10:00N 59°53' E 030°13'0 0.0
2018-Apr-15 09:30N 59°53' E 030°13'0 0.0
2018-Apr-15 09:00N 59°53' E 030°13'0 0.0
2018-Apr-15 08:30N 59°53' E 030°13'0 0.0
2018-Apr-15 08:00N 59°53' E 030°13'0 0.0
2018-Apr-15 07:24N 59°53' E 030°13'0 0.0
2018-Apr-15 07:00N 59°53' E 030°13'0 0.0
2018-Apr-15 06:30N 59°53' E 030°13'0 0.0
2018-Apr-15 05:57N 59°53' E 030°13'0 0.0
2018-Apr-15 05:30N 59°53' E 030°13'0 0.0
2018-Apr-15 05:00N 59°53' E 030°13'0 0.0
2018-Apr-15 04:29N 59°53' E 030°13'0 0.0
2018-Apr-15 03:56N 59°53' E 030°13'0 0.0
2018-Apr-15 03:26N 59°53' E 030°13'0 0.0
2018-Apr-15 03:00N 59°53' E 030°13'0 0.0
2018-Apr-15 02:30N 59°53' E 030°13'0 0.0
2018-Apr-15 01:59N 59°53' E 030°13'0 0.0
2018-Apr-15 01:29N 59°53' E 030°13'0 0.0
2018-Apr-15 00:59N 59°53' E 030°13'0 0.0
2018-Apr-15 00:30N 59°53' E 030°13'0 0.0
2018-Apr-14 23:59N 59°53' E 030°13'0 0.0
2018-Apr-14 23:30N 59°53' E 030°13'0 0.0
2018-Apr-14 23:00N 59°53' E 030°13'0 0.0
2018-Apr-14 22:30N 59°53' E 030°13'0 0.0
2018-Apr-14 21:56N 59°53' E 030°13'0 0.0
2018-Apr-14 21:29N 59°53' E 030°13'0 0.0
2018-Apr-14 20:57N 59°53' E 030°13'0 0.0
2018-Apr-14 20:30N 59°53' E 030°13'0 0.0
2018-Apr-14 20:00N 59°53' E 030°13'0 0.0
2018-Apr-14 19:29N 59°53' E 030°13'0 0.0
2018-Apr-14 18:59N 59°53' E 030°13'0 0.0
2018-Apr-14 18:30N 59°53' E 030°13'0 0.0
2018-Apr-14 18:00N 59°53' E 030°13'0 0.0
2018-Apr-14 17:27N 59°53' E 030°13'0 0.0
2018-Apr-14 16:56N 59°53' E 030°13'0 0.0
2018-Apr-14 16:30N 59°53' E 030°13'0 0.0
2018-Apr-14 15:19N 59°53' E 030°13'0 0.0
2018-Apr-14 14:57N 59°53' E 030°13'0 0.0
2018-Apr-14 14:20N 59°53' E 030°13'0 0.0
2018-Apr-14 14:00N 59°53' E 030°13'0 0.0
2018-Apr-14 13:29N 59°53' E 030°13'0 0.0
2018-Apr-14 12:59N 59°53' E 030°13'0 0.0
2018-Apr-14 12:27N 59°53' E 030°13'0 0.0
2018-Apr-14 11:56N 59°53' E 030°13'0 0.0
2018-Apr-14 11:29N 59°53' E 030°13'0 0.0
2018-Apr-14 10:54N 59°53' E 030°13'0 0.0
2018-Apr-14 10:29N 59°53' E 030°13'0 0.0
2018-Apr-14 10:00N 59°53' E 030°13'0 0.0
2018-Apr-14 09:30N 59°53' E 030°13'0 0.0
2018-Apr-14 08:56N 59°53' E 030°13'0 0.0
2018-Apr-14 08:29N 59°53' E 030°13'0 0.0
2018-Apr-14 07:59N 59°53' E 030°13'0 0.0
2018-Apr-14 07:29N 59°53' E 030°13'0 0.0
2018-Apr-14 06:57N 59°53' E 030°13'0 0.2
2018-Apr-14 06:30N 59°53' E 030°12'1 2.8
2018-Apr-14 06:00N 59°53' E 030°10'4 7.3
2018-Apr-14 05:30N 59°55' E 030°03'21 7.2
2018-Apr-14 02:37N 60°01' E 029°24'2 4.6
2018-Apr-14 02:08N 60°01' E 029°19'2 4.5
2018-Apr-14 01:44N 60°01' E 029°16'1 4.4
2018-Apr-14 01:26N 60°01' E 029°13'2 4.4
2018-Apr-14 01:01N 60°02' E 029°09'2 4.0
2018-Apr-14 00:30N 60°02' E 029°05'2 3.4
2018-Apr-14 00:01N 60°02' E 029°02'2 3.7
2018-Apr-13 23:30N 60°02' E 028°58'3 3.8
2018-Apr-13 22:50N 60°02' E 028°53'1 3.9
2018-Apr-13 22:30N 60°02' E 028°51'2 3.8
2018-Apr-13 22:00N 60°02' E 028°47'2 4.1
2018-Apr-13 21:31N 60°02' E 028°43'2 3.9
2018-Apr-13 21:01N 60°02' E 028°39'2 3.8
2018-Apr-13 20:31N 60°02' E 028°35'2 3.9
2018-Apr-13 20:00N 60°02' E 028°31'2 4.0
2018-Apr-13 19:31N 60°03' E 028°27'4 7.0
2018-Apr-13 19:01N 60°04' E 028°21'4 7.3
2018-Apr-13 18:30N 60°07' E 028°15'4 7.2
2018-Apr-13 18:00N 60°08' E 028°08'4 7.5
2018-Apr-13 17:30N 60°09' E 028°01'4 7.6
2018-Apr-13 17:00N 60°10' E 027°54'4 7.6
2018-Apr-13 16:30N 60°10' E 027°46'4 7.6
2018-Apr-13 16:01N 60°09' E 027°39'4 7.5
2018-Apr-13 15:31N 60°07' E 027°33'4 7.5
2018-Apr-13 15:00N 60°05' E 027°27'4 7.9
2018-Apr-13 14:30N 60°03' E 027°20'4 7.9
2018-Apr-13 14:00N 60°01' E 027°13'4 7.9
2018-Apr-13 13:30N 59°59' E 027°06'4 7.5
2018-Apr-13 13:00N 59°58' E 026°59'4 8.0
2018-Apr-13 12:30N 59°58' E 026°51'4 8.2
2018-Apr-13 12:00N 59°59' E 026°43'4 7.4
2018-Apr-13 11:30N 59°59' E 026°36'3 5.9
2018-Apr-13 11:00N 59°58' E 026°30'3 5.8
2018-Apr-13 10:30N 59°57' E 026°24'3 5.9
2018-Apr-13 10:00N 59°56' E 026°19'3 5.8
2018-Apr-13 09:30N 59°56' E 026°13'17 6.0
2018-Apr-13 06:42N 59°51' E 025°40'7 6.6
2018-Apr-13 05:38N 59°50' E 025°27'1 7.6
2018-Apr-13 05:28N 59°49' E 025°24'4 7.6
2018-Apr-13 05:00N 59°49' E 025°17'4 7.8
2018-Apr-13 04:30N 59°48' E 025°10'4 7.9
2018-Apr-13 03:59N 59°47' E 025°02'4 8.0
2018-Apr-13 03:31N 59°46' E 024°54'4 7.9
2018-Apr-13 03:00N 59°45' E 024°47'4 7.7
2018-Apr-13 02:30N 59°44' E 024°39'4 8.0
2018-Apr-13 02:01N 59°43' E 024°32'4 8.0
2018-Apr-13 01:31N 59°42' E 024°24'4 7.7
2018-Apr-13 01:00N 59°41' E 024°17'4 7.6
2018-Apr-13 00:30N 59°40' E 024°10'4 7.6
2018-Apr-13 00:00N 59°39' E 024°03'  
Track history (hours):
 
Tides and Currents Weather Stations Pressure Air Temp Water Temp Dewpoint Dewpoint Depression Visibility Wind Speed Wind Dir Waves Ship Positions

Mir (Russia)

Last reported at 2018-Apr-23 00:00 UTC. Time now 2018-Apr-23 00:19 UTC.
Position N 54°58' E 016°16'.

Length 109 m; draft 6.6 m.

Type: Sailing vessel. MMSI: 273133800.

Date/timePositionNaut miles runAvg speedWind from/ knotsBaromVisibWave heightAir tempDewpointWater temp
2018-Apr-23 00:00N 54°58' E 016°16'0 0.7
2018-Apr-22 23:26N 54°58' E 016°16'0 0.6
2018-Apr-22 23:00N 54°58' E 016°17'0 0.6
2018-Apr-22 22:28N 54°58' E 016°17'0 0.5
2018-Apr-22 22:00N 54°58' E 016°18'0 0.5
2018-Apr-22 21:23N 54°58' E 016°18'0 0.4
2018-Apr-22 20:53N 54°58' E 016°19'0 0.4
2018-Apr-22 20:19N 54°58' E 016°19'0 0.5
2018-Apr-22 20:00N 54°58' E 016°19'0 0.4
2018-Apr-22 19:26N 54°58' E 016°20'0 0.4
2018-Apr-22 18:58N 54°58' E 016°20'0 0.5
2018-Apr-22 18:30N 54°58' E 016°21'0 0.4
2018-Apr-22 18:00N 54°58' E 016°21'0 0.3
2018-Apr-22 17:24N 54°58' E 016°21'0 0.3
2018-Apr-22 16:59N 54°58' E 016°21'0 0.3
2018-Apr-22 16:30N 54°58' E 016°22'0 0.3
2018-Apr-22 16:00N 54°58' E 016°22'0 0.3
2018-Apr-22 15:30N 54°58' E 016°22'1 0.1
2018-Apr-22 11:07N 54°57' E 016°23'0 0.2
2018-Apr-22 09:58N 54°57' E 016°22'26 4.0
2018-Apr-22 03:25N 55°12' E 016°60'47 5.6
2018-Apr-21 18:54N 55°43' E 018°02'2 5.4
2018-Apr-21 18:30N 55°45' E 018°05'3 5.4
2018-Apr-21 17:58N 55°47' E 018°08'4 5.9
2018-Apr-21 17:16N 55°51' E 018°11'2 5.8
2018-Apr-21 16:59N 55°53' E 018°12'218 5.3
2018-Apr-20 00:00N 59°04' E 021°29'58 5.1
2018-Apr-19 12:39N 59°36' E 023°03'1 4.8
2018-Apr-19 12:21N 59°37' E 023°06'2 4.9
2018-Apr-19 12:00N 59°37' E 023°09'3 5.1
2018-Apr-19 11:30N 59°38' E 023°14'3 4.9
2018-Apr-19 10:57N 59°38' E 023°19'2 4.9
2018-Apr-19 10:30N 59°39' E 023°23'3 5.3
2018-Apr-19 10:00N 59°40' E 023°28'3 5.3
2018-Apr-19 09:30N 59°40' E 023°33'3 5.5
2018-Apr-19 08:59N 59°41' E 023°39'3 5.4
2018-Apr-19 08:30N 59°42' E 023°44'3 5.5
2018-Apr-19 07:57N 59°43' E 023°49'2 5.2
2018-Apr-19 07:28N 59°43' E 023°54'2 5.3
2018-Apr-19 07:00N 59°44' E 023°59'3 5.1
2018-Apr-19 06:30N 59°44' E 024°04'7 5.4
2018-Apr-19 05:08N 59°46' E 024°18'1 5.5
2018-Apr-19 05:00N 59°47' E 024°19'3 5.4
2018-Apr-19 04:30N 59°47' E 024°25'3 5.1
2018-Apr-19 04:00N 59°48' E 024°30'2 5.0
2018-Apr-19 03:30N 59°48' E 024°34'2 5.0
2018-Apr-19 03:00N 59°49' E 024°39'3 5.2
2018-Apr-19 02:30N 59°49' E 024°44'3 5.1
2018-Apr-19 02:00N 59°50' E 024°49'3 5.1
2018-Apr-19 01:30N 59°51' E 024°54'3 5.2
2018-Apr-19 00:54N 59°51' E 025°00'2 5.5
2018-Apr-19 00:29N 59°52' E 025°05'3 5.4
2018-Apr-19 00:00N 59°52' E 025°10'3 5.4
2018-Apr-18 23:30N 59°53' E 025°15'29 5.3
2018-Apr-18 17:58N 59°59' E 026°12'3 5.6
2018-Apr-18 17:30N 59°60' E 026°17'3 5.4
2018-Apr-18 16:58N 60°00' E 026°23'3 5.6
2018-Apr-18 16:30N 60°01' E 026°28'3 5.5
2018-Apr-18 16:00N 60°02' E 026°33'3 5.5
2018-Apr-18 15:30N 60°02' E 026°39'3 5.6
2018-Apr-18 15:00N 60°01' E 026°44'3 5.3
2018-Apr-18 14:30N 60°01' E 026°49'3 5.5
2018-Apr-18 13:58N 60°00' E 026°55'2 5.4
2018-Apr-18 13:30N 59°60' E 027°00'3 5.4
2018-Apr-18 13:00N 60°00' E 027°05'3 5.7
2018-Apr-18 12:30N 60°02' E 027°10'3 5.6
2018-Apr-18 12:00N 60°03' E 027°15'3 5.5
2018-Apr-18 11:30N 60°05' E 027°20'3 5.7
2018-Apr-18 11:00N 60°06' E 027°25'3 5.7
2018-Apr-18 10:30N 60°08' E 027°30'3 6.4
2018-Apr-18 10:00N 60°09' E 027°35'3 5.1
2018-Apr-18 09:30N 60°11' E 027°39'3 6.1
2018-Apr-18 09:00N 60°12' E 027°45'3 6.3
2018-Apr-18 08:30N 60°11' E 027°51'3 6.4
2018-Apr-18 08:00N 60°11' E 027°58'3 6.4
2018-Apr-18 07:30N 60°10' E 028°04'3 6.5
2018-Apr-18 07:00N 60°09' E 028°10'3 6.5
2018-Apr-18 06:30N 60°08' E 028°16'3 6.6
2018-Apr-18 06:00N 60°06' E 028°22'3 6.7
2018-Apr-18 05:30N 60°04' E 028°27'3 6.3
2018-Apr-18 05:00N 60°03' E 028°33'3 6.3
2018-Apr-18 04:30N 60°03' E 028°40'3 6.5
2018-Apr-18 04:01N 60°03' E 028°46'27 6.4
2018-Apr-17 23:52N 59°60' E 029°39'3 7.3
2018-Apr-17 23:30N 59°59' E 029°44'4 7.2
2018-Apr-17 23:00N 59°57' E 029°50'4 7.4
2018-Apr-17 22:30N 59°56' E 029°57'4 7.6
2018-Apr-17 22:01N 59°54' E 030°04'4 7.9
2018-Apr-17 21:29N 59°53' E 030°12'0 0.8
2018-Apr-17 21:00N 59°53' E 030°13'0 0.0
2018-Apr-17 20:27N 59°53' E 030°13'0 0.0
2018-Apr-17 20:00N 59°53' E 030°13'0 0.0
2018-Apr-17 19:30N 59°53' E 030°13'0 0.0
2018-Apr-17 19:00N 59°53' E 030°13'0 0.0
2018-Apr-17 18:30N 59°53' E 030°13'0 0.0
2018-Apr-17 18:00N 59°53' E 030°13'0 0.0
2018-Apr-17 17:30N 59°53' E 030°13'0 0.0
2018-Apr-17 17:00N 59°53' E 030°13'0 0.0
2018-Apr-17 16:27N 59°53' E 030°13'0 0.0
2018-Apr-17 16:00N 59°53' E 030°13'0 0.0
2018-Apr-17 15:30N 59°53' E 030°13'0 0.0
2018-Apr-17 15:00N 59°53' E 030°13'0 0.0
2018-Apr-17 14:30N 59°53' E 030°13'0 0.0
2018-Apr-17 13:57N 59°53' E 030°13'0 0.0
2018-Apr-17 13:30N 59°53' E 030°13'0 0.0
2018-Apr-17 13:00N 59°53' E 030°13'0 0.0
2018-Apr-17 12:30N 59°53' E 030°13'0 0.0
2018-Apr-17 12:00N 59°53' E 030°13'0 0.0
2018-Apr-17 11:30N 59°53' E 030°13'0 0.0
2018-Apr-17 11:00N 59°53' E 030°13'0 0.0
2018-Apr-17 10:30N 59°53' E 030°13'0 0.0
2018-Apr-17 10:00N 59°53' E 030°13'0 0.0
2018-Apr-17 09:30N 59°53' E 030°13'0 0.0
2018-Apr-17 09:00N 59°53' E 030°13'0 0.0
2018-Apr-17 08:30N 59°53' E 030°13'0 0.0
2018-Apr-17 08:00N 59°53' E 030°13'0 0.0
2018-Apr-17 07:30N 59°53' E 030°13'0 0.0
2018-Apr-17 00:33N 59°53' E 030°13'0 0.1
2018-Apr-17 00:30N 59°53' E 030°13'0 0.0
2018-Apr-16 23:57N 59°53' E 030°13'0 0.0
2018-Apr-16 23:30N 59°53' E 030°13'0 0.0
2018-Apr-16 23:00N 59°53' E 030°13'0 0.0
2018-Apr-16 22:30N 59°53' E 030°13'0 0.0
2018-Apr-16 22:00N 59°53' E 030°13'0 0.0
2018-Apr-16 21:30N 59°53' E 030°13'0 0.0
2018-Apr-16 21:00N 59°53' E 030°13'0 0.0
2018-Apr-16 20:30N 59°53' E 030°13'0 0.0
2018-Apr-16 20:00N 59°53' E 030°13'0 0.0
2018-Apr-16 19:30N 59°53' E 030°13'0 0.0
2018-Apr-16 19:00N 59°53' E 030°13'0 0.0
2018-Apr-16 18:30N 59°53' E 030°13'0 0.0
2018-Apr-16 18:00N 59°53' E 030°13'0 0.0
2018-Apr-16 17:30N 59°53' E 030°13'0 0.0
2018-Apr-16 17:00N 59°53' E 030°13'0 0.0
2018-Apr-16 16:30N 59°53' E 030°13'0 0.0
2018-Apr-16 16:00N 59°53' E 030°13'0 0.0
2018-Apr-16 15:30N 59°53' E 030°13'0 0.0
2018-Apr-16 15:00N 59°53' E 030°13'0 0.0
2018-Apr-16 14:30N 59°53' E 030°13'0 0.0
2018-Apr-16 13:57N 59°53' E 030°13'0 0.0
2018-Apr-16 13:27N 59°53' E 030°13'0 0.0
2018-Apr-16 12:57N 59°53' E 030°13'0 0.0
2018-Apr-16 12:30N 59°53' E 030°13'0 0.0
2018-Apr-16 11:57N 59°53' E 030°13'0 0.0
2018-Apr-16 11:30N 59°53' E 030°13'0 0.0
2018-Apr-16 11:00N 59°53' E 030°13'0 0.0
2018-Apr-16 10:30N 59°53' E 030°13'0 0.0
2018-Apr-16 10:00N 59°53' E 030°13'0 0.0
2018-Apr-16 09:30N 59°53' E 030°13'0 0.0
2018-Apr-16 09:00N 59°53' E 030°13'0 0.0
2018-Apr-16 08:27N 59°53' E 030°13'0 0.0
2018-Apr-16 08:00N 59°53' E 030°13'0 0.0
2018-Apr-16 07:30N 59°53' E 030°13'0 0.0
2018-Apr-16 07:00N 59°53' E 030°13'0 0.0
2018-Apr-16 06:30N 59°53' E 030°13'0 0.0
2018-Apr-16 06:00N 59°53' E 030°13'0 0.0
2018-Apr-16 05:30N 59°53' E 030°13'0 0.0
2018-Apr-16 05:00N 59°53' E 030°13'0 0.0
2018-Apr-16 04:24N 59°53' E 030°13'0 0.0
2018-Apr-16 04:00N 59°53' E 030°13'0 0.0
2018-Apr-16 03:27N 59°53' E 030°13'0 0.0
2018-Apr-16 03:00N 59°53' E 030°13'0 0.0
2018-Apr-16 02:30N 59°53' E 030°13'0 0.0
2018-Apr-16 01:57N 59°53' E 030°13'0 0.0
2018-Apr-16 01:30N 59°53' E 030°13'0 0.0
2018-Apr-16 01:00N 59°53' E 030°13'0 0.0
2018-Apr-16 00:30N 59°53' E 030°13'0 0.0
2018-Apr-15 23:57N 59°53' E 030°13'0 0.0
2018-Apr-15 23:30N 59°53' E 030°13'0 0.0
2018-Apr-15 23:00N 59°53' E 030°13'0 0.0
2018-Apr-15 22:30N 59°53' E 030°13'0 0.0
2018-Apr-15 22:00N 59°53' E 030°13'0 0.0
2018-Apr-15 21:21N 59°53' E 030°13'0 0.0
2018-Apr-15 21:00N 59°53' E 030°13'0 0.0
2018-Apr-15 20:30N 59°53' E 030°13'0 0.0
2018-Apr-15 19:57N 59°53' E 030°13'0 0.0
2018-Apr-15 19:30N 59°53' E 030°13'0 0.0
2018-Apr-15 19:00N 59°53' E 030°13'0 0.0
2018-Apr-15 18:27N 59°53' E 030°13'0 0.0
2018-Apr-15 17:57N 59°53' E 030°13'0 0.0
2018-Apr-15 17:30N 59°53' E 030°13'0 0.0
2018-Apr-15 17:00N 59°53' E 030°13'0 0.0
2018-Apr-15 16:30N 59°53' E 030°13'0 0.0
2018-Apr-15 16:00N 59°53' E 030°13'0 0.0
2018-Apr-15 15:30N 59°53' E 030°13'0 0.0
2018-Apr-15 14:57N 59°53' E 030°13'0 0.0
2018-Apr-15 14:27N 59°53' E 030°13'0 0.0
2018-Apr-15 14:00N 59°53' E 030°13'0 0.0
2018-Apr-15 13:27N 59°53' E 030°13'0 0.0
2018-Apr-15 13:00N 59°53' E 030°13'0 0.0
2018-Apr-15 12:30N 59°53' E 030°13'0 0.0
2018-Apr-15 12:00N 59°53' E 030°13'0 0.0
2018-Apr-15 11:30N 59°53' E 030°13'0 0.0
2018-Apr-15 11:00N 59°53' E 030°13'0 0.0
2018-Apr-15 10:30N 59°53' E 030°13'0 0.0
2018-Apr-15 10:00N 59°53' E 030°13'0 0.0
2018-Apr-15 09:30N 59°53' E 030°13'0 0.0
2018-Apr-15 09:00N 59°53' E 030°13'0 0.0
2018-Apr-15 08:30N 59°53' E 030°13'0 0.0
2018-Apr-15 08:00N 59°53' E 030°13'0 0.0
2018-Apr-15 07:24N 59°53' E 030°13'0 0.0
2018-Apr-15 07:00N 59°53' E 030°13'0 0.0
2018-Apr-15 06:30N 59°53' E 030°13'0 0.0
2018-Apr-15 05:57N 59°53' E 030°13'0 0.0
2018-Apr-15 05:30N 59°53' E 030°13'0 0.0
2018-Apr-15 05:00N 59°53' E 030°13'0 0.0
2018-Apr-15 04:29N 59°53' E 030°13'0 0.0
2018-Apr-15 03:56N 59°53' E 030°13'0 0.0
2018-Apr-15 03:26N 59°53' E 030°13'0 0.0
2018-Apr-15 03:00N 59°53' E 030°13'0 0.0
2018-Apr-15 02:30N 59°53' E 030°13'0 0.0
2018-Apr-15 01:59N 59°53' E 030°13'0 0.0
2018-Apr-15 01:29N 59°53' E 030°13'0 0.0
2018-Apr-15 00:59N 59°53' E 030°13'0 0.0
2018-Apr-15 00:30N 59°53' E 030°13'0 0.0
2018-Apr-14 23:59N 59°53' E 030°13'0 0.0
2018-Apr-14 23:30N 59°53' E 030°13'0 0.0
2018-Apr-14 23:00N 59°53' E 030°13'0 0.0
2018-Apr-14 22:30N 59°53' E 030°13'0 0.0
2018-Apr-14 21:56N 59°53' E 030°13'0 0.0
2018-Apr-14 21:29N 59°53' E 030°13'0 0.0
2018-Apr-14 20:57N 59°53' E 030°13'0 0.0
2018-Apr-14 20:30N 59°53' E 030°13'0 0.0
2018-Apr-14 20:00N 59°53' E 030°13'0 0.0
2018-Apr-14 19:29N 59°53' E 030°13'0 0.0
2018-Apr-14 18:59N 59°53' E 030°13'0 0.0
2018-Apr-14 18:30N 59°53' E 030°13'0 0.0
2018-Apr-14 18:00N 59°53' E 030°13'0 0.0
2018-Apr-14 17:27N 59°53' E 030°13'0 0.0
2018-Apr-14 16:56N 59°53' E 030°13'0 0.0
2018-Apr-14 16:30N 59°53' E 030°13'0 0.0
2018-Apr-14 15:19N 59°53' E 030°13'0 0.0
2018-Apr-14 14:57N 59°53' E 030°13'0 0.0
2018-Apr-14 14:20N 59°53' E 030°13'0 0.0
2018-Apr-14 14:00N 59°53' E 030°13'0 0.0
2018-Apr-14 13:29N 59°53' E 030°13'0 0.0
2018-Apr-14 12:59N 59°53' E 030°13'0 0.0
2018-Apr-14 12:27N 59°53' E 030°13'0 0.0
2018-Apr-14 11:56N 59°53' E 030°13'0 0.0
2018-Apr-14 11:29N 59°53' E 030°13'0 0.0
2018-Apr-14 10:54N 59°53' E 030°13'0 0.0
2018-Apr-14 10:29N 59°53' E 030°13'0 0.0
2018-Apr-14 10:00N 59°53' E 030°13'0 0.0
2018-Apr-14 09:30N 59°53' E 030°13'0 0.0
2018-Apr-14 08:56N 59°53' E 030°13'0 0.0
2018-Apr-14 08:29N 59°53' E 030°13'0 0.0
2018-Apr-14 07:59N 59°53' E 030°13'0 0.0
2018-Apr-14 07:29N 59°53' E 030°13'0 0.0
2018-Apr-14 06:57N 59°53' E 030°13'0 0.2
2018-Apr-14 06:30N 59°53' E 030°12'1 2.8
2018-Apr-14 06:00N 59°53' E 030°10'4 7.3
2018-Apr-14 05:30N 59°55' E 030°03'21 7.2
2018-Apr-14 02:37N 60°01' E 029°24'2 4.6
2018-Apr-14 02:08N 60°01' E 029°19'2 4.5
2018-Apr-14 01:44N 60°01' E 029°16'1 4.4
2018-Apr-14 01:26N 60°01' E 029°13'2 4.4
2018-Apr-14 01:01N 60°02' E 029°09'2 4.0
2018-Apr-14 00:30N 60°02' E 029°05'2 3.4
2018-Apr-14 00:01N 60°02' E 029°02'2 3.7
2018-Apr-13 23:30N 60°02' E 028°58'3 3.8
2018-Apr-13 22:50N 60°02' E 028°53'1 3.9
2018-Apr-13 22:30N 60°02' E 028°51'2 3.8
2018-Apr-13 22:00N 60°02' E 028°47'2 4.1
2018-Apr-13 21:31N 60°02' E 028°43'2 3.9
2018-Apr-13 21:01N 60°02' E 028°39'2 3.8
2018-Apr-13 20:31N 60°02' E 028°35'2 3.9
2018-Apr-13 20:00N 60°02' E 028°31'2 4.0
2018-Apr-13 19:31N 60°03' E 028°27'4 7.0
2018-Apr-13 19:01N 60°04' E 028°21'4 7.3
2018-Apr-13 18:30N 60°07' E 028°15'4 7.2
2018-Apr-13 18:00N 60°08' E 028°08'4 7.5
2018-Apr-13 17:30N 60°09' E 028°01'4 7.6
2018-Apr-13 17:00N 60°10' E 027°54'4 7.6
2018-Apr-13 16:30N 60°10' E 027°46'4 7.6
2018-Apr-13 16:01N 60°09' E 027°39'4 7.5
2018-Apr-13 15:31N 60°07' E 027°33'4 7.5
2018-Apr-13 15:00N 60°05' E 027°27'4 7.9
2018-Apr-13 14:30N 60°03' E 027°20'4 7.9
2018-Apr-13 14:00N 60°01' E 027°13'4 7.9
2018-Apr-13 13:30N 59°59' E 027°06'4 7.5
2018-Apr-13 13:00N 59°58' E 026°59'4 8.0
2018-Apr-13 12:30N 59°58' E 026°51'4 8.2
2018-Apr-13 12:00N 59°59' E 026°43'4 7.4
2018-Apr-13 11:30N 59°59' E 026°36'3 5.9
2018-Apr-13 11:00N 59°58' E 026°30'3 5.8
2018-Apr-13 10:30N 59°57' E 026°24'3 5.9
2018-Apr-13 10:00N 59°56' E 026°19'3 5.8
2018-Apr-13 09:30N 59°56' E 026°13'17 6.0
2018-Apr-13 06:42N 59°51' E 025°40'7 6.6
2018-Apr-13 05:38N 59°50' E 025°27'1 7.6
2018-Apr-13 05:28N 59°49' E 025°24'4 7.6
2018-Apr-13 05:00N 59°49' E 025°17'4 7.8
2018-Apr-13 04:30N 59°48' E 025°10'4 7.9
2018-Apr-13 03:59N 59°47' E 025°02'4 8.0
2018-Apr-13 03:31N 59°46' E 024°54'4 7.9
2018-Apr-13 03:00N 59°45' E 024°47'4 7.7
2018-Apr-13 02:30N 59°44' E 024°39'4 8.0
2018-Apr-13 02:01N 59°43' E 024°32'4 8.0
2018-Apr-13 01:31N 59°42' E 024°24'4 7.7
2018-Apr-13 01:00N 59°41' E 024°17'4 7.6
2018-Apr-13 00:30N 59°40' E 024°10'4 7.6
2018-Apr-13 00:00N 59°39' E 024°03'  

Dump ship's entire track history